Time;durP1;ratioP1;P1;durP2;ratioP2;P2;SDS_P1;SDS_P2;PMS_P1;PMS_P2;Temp;Humidity;BMP_temperature;BMP_pressure;BME280_temperature;BME280_humidity;BME280_pressure;Samples;Min_cycle;Max_cycle;Signal;HPM_P1;HPM_P2
2023/09/06 00:00:12;;;;;;;4.40;2.60;;;24.70;46.10;;;;;;5093458;28;20036;-80
2023/09/06 00:02:37;;;;;;;3.85;2.30;;;24.60;46.00;;;;;;5093211;28;20036;-79
2023/09/06 00:05:04;;;;;;;5.00;2.13;;;24.60;46.20;;;;;;5084430;22;20047;-79
2023/09/06 00:07:29;;;;;;;4.82;2.25;;;24.60;46.40;;;;;;5075244;28;20093;-79
2023/09/06 00:09:55;;;;;;;5.80;3.05;;;24.50;46.30;;;;;;5093082;28;20028;-78
2023/09/06 00:12:21;;;;;;;4.10;2.50;;;24.50;46.40;;;;;;5093218;28;20044;-79
2023/09/06 00:14:46;;;;;;;6.10;2.60;;;24.50;46.60;;;;;;5093462;28;20039;-79
2023/09/06 00:17:12;;;;;;;5.18;2.45;;;24.50;46.70;;;;;;5093332;28;20039;-80
2023/09/06 00:19:38;;;;;;;6.75;2.22;;;24.50;46.80;;;;;;5093123;28;20124;-78
2023/09/06 00:22:04;;;;;;;6.97;2.60;;;24.50;46.80;;;;;;5093290;28;20101;-80
2023/09/06 00:24:31;;;;;;;4.75;2.10;;;24.50;46.90;;;;;;5093858;28;20040;-80
2023/09/06 00:26:58;;;;;;;6.72;2.35;;;24.50;46.90;;;;;;5075026;28;20348;-80
2023/09/06 00:29:24;;;;;;;5.95;2.50;;;24.50;47.00;;;;;;5093234;28;20055;-78
2023/09/06 00:31:50;;;;;;;6.07;2.42;;;24.40;46.90;;;;;;5097817;28;20506;-79
2023/09/06 00:34:16;;;;;;;5.35;2.55;;;24.40;47.30;;;;;;5112541;28;20107;-79
2023/09/06 00:36:42;;;;;;;5.78;2.72;;;24.40;47.30;;;;;;5113153;28;20490;-79
2023/09/06 00:39:09;;;;;;;4.00;2.40;;;24.30;47.50;;;;;;5113549;28;20045;-80
2023/09/06 00:41:40;;;;;;;5.93;2.83;;;24.30;47.50;;;;;;5095329;28;20044;-80
2023/09/06 00:44:08;;;;;;;5.70;2.45;;;24.30;47.30;;;;;;5094973;28;20024;-79
2023/09/06 00:46:34;;;;;;;6.72;2.50;;;24.30;47.40;;;;;;5115391;28;20032;-77
2023/09/06 00:49:02;;;;;;;5.65;2.60;;;24.30;48.10;;;;;;5117725;28;20539;-78
2023/09/06 00:51:28;;;;;;;5.03;2.70;;;24.30;47.60;;;;;;5117866;28;20035;-79
2023/09/06 00:53:55;;;;;;;3.50;2.38;;;24.30;47.70;;;;;;5117262;28;20032;-80
2023/09/06 00:56:22;;;;;;;5.20;2.70;;;24.30;47.60;;;;;;5117216;28;20098;-80
2023/09/06 00:58:48;;;;;;;4.43;2.50;;;24.30;47.70;;;;;;5117016;28;20114;-79
2023/09/06 01:01:14;;;;;;;5.03;2.30;;;24.30;47.70;;;;;;5098659;28;20123;-80
2023/09/06 01:03:40;;;;;;;6.35;2.67;;;24.20;47.70;;;;;;5117030;28;20478;-80
2023/09/06 01:06:27;;;;;;;5.28;2.50;;;24.20;47.60;;;;;;5098310;28;20059;-79
2023/09/06 01:08:57;;;;;;;3.85;2.40;;;24.20;48.20;;;;;;5117094;28;20054;-78
2023/09/06 01:11:25;;;;;;;8.57;2.90;;;24.10;48.10;;;;;;5098438;28;20059;-80
2023/09/06 01:13:52;;;;;;;3.75;2.50;;;24.20;48.30;;;;;;5112345;28;20028;-80
2023/09/06 01:16:30;;;;;;;7.47;2.63;;;24.20;48.30;;;;;;5118217;28;20042;-79
2023/09/06 01:18:57;;;;;;;4.70;2.53;;;24.10;48.20;;;;;;5116803;28;20075;-79
2023/09/06 01:21:38;;;;;;;4.22;2.53;;;24.00;48.20;;;;;;5116399;28;20463;-79
2023/09/06 01:24:05;;;;;;;7.90;2.95;;;24.00;48.50;;;;;;5099032;28;20500;-79
2023/09/06 01:26:33;;;;;;;6.63;2.72;;;24.00;48.50;;;;;;5116730;28;20059;-78
2023/09/06 01:28:59;;;;;;;4.95;2.80;;;24.00;48.90;;;;;;5116539;28;20039;-79
2023/09/06 01:31:24;;;;;;;4.22;2.70;;;24.00;48.80;;;;;;5116234;28;20093;-80
2023/09/06 01:33:50;;;;;;;5.05;2.65;;;24.00;48.90;;;;;;5116456;28;20044;-80
2023/09/06 01:36:16;;;;;;;6.22;2.55;;;23.90;49.00;;;;;;5116380;28;20088;-78
2023/09/06 01:38:42;;;;;;;5.00;2.75;;;23.90;48.90;;;;;;5116211;28;20028;-79
2023/09/06 01:41:11;;;;;;;5.45;2.60;;;23.90;49.00;;;;;;5116550;28;20043;-78
2023/09/06 01:43:37;;;;;;;7.10;2.70;;;23.90;49.20;;;;;;5116209;28;20032;-79
2023/09/06 01:46:03;;;;;;;5.15;2.70;;;23.90;49.20;;;;;;5116506;28;20039;-80
2023/09/06 01:48:29;;;;;;;4.28;2.67;;;23.80;49.30;;;;;;5099270;28;20032;-79
2023/09/06 01:50:55;;;;;;;6.43;2.90;;;23.80;49.50;;;;;;5120274;28;20128;-79
2023/09/06 01:53:22;;;;;;;5.32;2.70;;;23.70;49.70;;;;;;5134301;28;20091;-79
2023/09/06 01:55:48;;;;;;;5.50;2.50;;;23.70;49.70;;;;;;5120284;28;20502;-80
2023/09/06 01:58:14;;;;;;;6.25;2.75;;;23.70;49.80;;;;;;5116683;28;20031;-81
2023/09/06 02:00:40;;;;;;;4.72;2.70;;;23.70;49.70;;;;;;5116205;28;20093;-80
2023/09/06 02:03:07;;;;;;;7.47;2.85;;;23.60;49.70;;;;;;5097695;28;20038;-80
2023/09/06 02:05:34;;;;;;;5.65;3.00;;;23.60;50.30;;;;;;5097500;28;20394;-80
2023/09/06 02:08:00;;;;;;;6.22;2.78;;;23.60;50.30;;;;;;5116722;28;20390;-78
2023/09/06 02:10:25;;;;;;;4.90;2.83;;;23.60;50.10;;;;;;5097365;28;20050;-79
2023/09/06 02:12:51;;;;;;;5.22;2.70;;;23.60;50.50;;;;;;5116523;28;20028;-79
2023/09/06 02:15:17;;;;;;;5.85;3.03;;;23.60;50.60;;;;;;5097988;28;20031;-79
2023/09/06 02:17:44;;;;;;;4.43;2.85;;;23.60;50.60;;;;;;5097176;28;20115;-79
2023/09/06 02:20:20;;;;;;;4.40;2.85;;;23.60;50.90;;;;;;5115503;28;20114;-80
2023/09/06 02:22:57;;;;;;;6.75;2.88;;;23.60;50.80;;;;;;5115525;28;20039;-79
2023/09/06 02:25:30;;;;;;;4.95;3.08;;;23.50;50.80;;;;;;5115409;28;20080;-78
2023/09/06 02:27:57;;;;;;;6.57;3.08;;;23.60;51.00;;;;;;5115221;28;20450;-79
2023/09/06 02:30:23;;;;;;;6.07;3.20;;;23.60;51.00;;;;;;5115274;28;20056;-80
2023/09/06 02:32:49;;;;;;;5.40;2.90;;;23.50;51.00;;;;;;5096822;28;20086;-79
2023/09/06 02:35:15;;;;;;;4.60;2.90;;;23.40;51.00;;;;;;5115085;28;20031;-80
2023/09/06 02:37:41;;;;;;;5.85;3.30;;;23.40;51.10;;;;;;5115492;28;20043;-79
2023/09/06 02:40:16;;;;;;;5.07;3.13;;;23.40;51.00;;;;;;5114836;28;20394;-79
2023/09/06 02:42:43;;;;;;;5.70;3.15;;;23.40;51.00;;;;;;5115305;28;20032;-79
2023/09/06 02:45:13;;;;;;;4.32;2.70;;;23.40;51.40;;;;;;5114941;28;20028;-79
2023/09/06 02:47:48;;;;;;;6.57;3.15;;;23.40;51.40;;;;;;5114964;28;20122;-80
2023/09/06 02:50:18;;;;;;;6.15;3.33;;;23.30;51.60;;;;;;5096540;28;20027;-80
2023/09/06 02:52:47;;;;;;;5.68;3.30;;;23.30;51.50;;;;;;5114933;28;20164;-80
2023/09/06 02:55:14;;;;;;;4.70;3.00;;;23.30;51.50;;;;;;5114600;28;20531;-79
2023/09/06 02:57:43;;;;;;;6.40;3.05;;;23.30;51.80;;;;;;5114873;28;20063;-80
2023/09/06 03:00:25;;;;;;;8.02;3.10;;;23.30;51.80;;;;;;5114400;28;20167;-79
2023/09/06 03:02:55;;;;;;;4.88;2.90;;;23.30;51.80;;;;;;5114725;28;20046;-78
2023/09/06 03:05:22;;;;;;;5.75;3.03;;;23.20;51.80;;;;;;5114497;28;20495;-81
2023/09/06 03:07:48;;;;;;;5.63;3.00;;;23.20;52.00;;;;;;5096228;28;20044;-79
2023/09/06 03:10:19;;;;;;;4.95;3.05;;;23.20;52.20;;;;;;5113872;28;20046;-81
2023/09/06 03:12:55;;;;;;;5.68;3.10;;;23.10;52.30;;;;;;5114608;28;20505;-79
2023/09/06 03:15:24;;;;;;;7.65;3.00;;;23.10;52.50;;;;;;5114458;28;20085;-80
2023/09/06 03:17:53;;;;;;;7.15;2.90;;;23.10;52.60;;;;;;5114443;28;20391;-81
2023/09/06 03:20:20;;;;;;;4.70;2.92;;;23.10;52.70;;;;;;5095968;28;20130;-80
2023/09/06 03:22:47;;;;;;;6.65;3.38;;;23.00;52.70;;;;;;5114438;28;20031;-80
2023/09/06 03:25:17;;;;;;;5.47;3.30;;;23.00;53.00;;;;;;5114349;28;20067;-81
2023/09/06 03:27:42;;;;;;;8.13;3.60;;;22.90;52.40;;;;;;5114118;28;20042;-81
2023/09/06 03:30:09;;;;;;;6.80;2.80;;;22.90;53.30;;;;;;5114220;28;20457;-78
2023/09/06 03:32:35;;;;;;;7.75;3.25;;;22.90;53.20;;;;;;5114304;28;20032;-79
2023/09/06 03:35:04;;;;;;;9.38;3.08;;;22.90;53.30;;;;;;5113961;28;20035;-79
2023/09/06 03:37:30;;;;;;;7.00;2.92;;;22.90;53.50;;;;;;5113954;28;20328;-80
2023/09/06 03:39:56;;;;;;;6.68;3.00;;;22.80;53.60;;;;;;5114427;28;20386;-81
2023/09/06 03:42:23;;;;;;;7.95;3.00;;;22.80;53.80;;;;;;5113951;28;20092;-80
2023/09/06 03:44:49;;;;;;;5.40;2.88;;;22.80;53.60;;;;;;5113988;28;20032;-79
2023/09/06 03:47:16;;;;;;;7.65;3.08;;;22.80;53.90;;;;;;5113916;28;20036;-80
2023/09/06 03:49:43;;;;;;;9.60;2.90;;;22.80;53.90;;;;;;5114001;28;20058;-79
2023/09/06 03:52:16;;;;;;;5.15;3.13;;;22.90;53.90;;;;;;5117588;28;20075;-78
2023/09/06 03:54:42;;;;;;;5.13;3.20;;;22.90;53.90;;;;;;5138661;27;20028;-79
2023/09/06 03:57:08;;;;;;;6.38;3.25;;;22.90;53.70;;;;;;5121490;28;20128;-79
2023/09/06 03:59:37;;;;;;;8.20;3.20;;;22.90;54.00;;;;;;5113928;28;20490;-79
2023/09/06 04:02:07;;;;;;;6.75;3.20;;;22.80;53.80;;;;;;5115113;28;20042;-79
2023/09/06 04:04:34;;;;;;;4.53;3.08;;;22.80;53.80;;;;;;5114653;28;20023;-80
2023/09/06 04:07:00;;;;;;;10.02;3.00;;;22.80;53.70;;;;;;5113329;28;20069;-80
2023/09/06 04:09:30;;;;;;;7.30;3.00;;;22.80;54.00;;;;;;5113563;28;20028;-80
2023/09/06 04:11:59;;;;;;;5.10;2.90;;;22.80;53.60;;;;;;5095405;28;20122;-80
2023/09/06 04:14:25;;;;;;;6.03;3.10;;;22.80;54.70;;;;;;5113241;28;20039;-80
2023/09/06 04:16:51;;;;;;;8.23;3.33;;;22.80;54.10;;;;;;5113203;28;20117;-80
2023/09/06 04:19:17;;;;;;;8.75;3.20;;;22.80;54.10;;;;;;5113636;28;20063;-80
2023/09/06 04:21:47;;;;;;;6.15;3.05;;;22.70;54.30;;;;;;5094262;28;20043;-79
2023/09/06 04:24:14;;;;;;;5.65;3.22;;;22.60;54.40;;;;;;5113620;28;20391;-80
2023/09/06 04:26:39;;;;;;;6.32;3.28;;;22.60;54.60;;;;;;5113740;28;20042;-79
2023/09/06 04:29:06;;;;;;;7.95;3.25;;;22.60;54.50;;;;;;5113203;28;20023;-80
2023/09/06 04:31:32;;;;;;;7.47;3.45;;;22.60;54.50;;;;;;5113054;28;20096;-79
2023/09/06 04:34:02;;;;;;;20.98;3.53;;;22.60;54.40;;;;;;5113066;28;20024;-79
2023/09/06 04:36:28;;;;;;;8.13;3.30;;;22.70;54.60;;;;;;5113319;28;20035;-81
2023/09/06 04:38:56;;;;;;;9.20;3.65;;;22.70;54.60;;;;;;5113198;28;20097;-81
2023/09/06 04:41:22;;;;;;;8.93;3.53;;;22.70;54.90;;;;;;5113187;28;20388;-81
2023/09/06 04:43:47;;;;;;;9.43;3.65;;;22.70;54.70;;;;;;5113302;28;20034;-81
2023/09/06 04:46:13;;;;;;;7.00;3.45;;;22.70;54.70;;;;;;5114994;28;20047;-80
2023/09/06 04:48:39;;;;;;;6.30;3.47;;;22.60;54.80;;;;;;5113107;28;20080;-79
2023/09/06 04:51:05;;;;;;;9.88;3.33;;;22.60;55.00;;;;;;5112721;28;20115;-81
2023/09/06 04:53:31;;;;;;;9.52;3.35;;;22.60;54.90;;;;;;5090972;28;20039;-80
2023/09/06 04:55:56;;;;;;;8.18;3.88;;;22.50;55.20;;;;;;5081728;28;20036;-79
2023/09/06 04:58:22;;;;;;;6.00;3.28;;;22.50;55.30;;;;;;5078768;28;20025;-78
2023/09/06 05:00:48;;;;;;;8.32;3.70;;;22.40;55.40;;;;;;5072445;28;20041;-80
2023/09/06 05:03:18;;;;;;;6.28;3.40;;;22.40;55.50;;;;;;5087184;28;20459;-80
2023/09/06 05:05:46;;;;;;;8.35;3.90;;;22.40;55.50;;;;;;5091525;28;20403;-80
2023/09/06 05:08:11;;;;;;;9.15;3.63;;;22.40;55.60;;;;;;5081870;28;20472;-81
2023/09/06 05:10:39;;;;;;;9.27;4.07;;;22.40;55.50;;;;;;5080884;28;20032;-81
2023/09/06 05:13:07;;;;;;;5.28;3.30;;;22.40;55.50;;;;;;5110773;28;20689;-81
2023/09/06 05:15:37;;;;;;;7.53;3.83;;;22.50;55.70;;;;;;5093980;28;20085;-80
2023/09/06 05:18:04;;;;;;;7.30;3.55;;;22.40;55.80;;;;;;5112510;28;20092;-81
2023/09/06 05:20:38;;;;;;;9.52;3.72;;;22.40;55.80;;;;;;5110949;28;20045;-80
2023/09/06 05:23:06;;;;;;;6.82;4.00;;;22.40;55.60;;;;;;5074832;28;20081;-80
2023/09/06 05:25:32;;;;;;;9.30;3.88;;;22.40;56.00;;;;;;5076289;28;20083;-84
2023/09/06 05:28:01;;;;;;;8.48;3.55;;;22.40;56.10;;;;;;5078108;28;20025;-86
2023/09/06 05:30:27;;;;;;;6.25;3.65;;;22.50;56.10;;;;;;5074111;28;20075;-86
2023/09/06 05:32:55;;;;;;;7.38;4.30;;;22.50;55.80;;;;;;5083424;28;20033;-81
2023/09/06 05:35:22;;;;;;;5.70;3.45;;;22.50;56.10;;;;;;5080122;28;20590;-88
2023/09/06 05:37:48;;;;;;;8.25;3.60;;;22.50;56.30;;;;;;5077228;28;20063;-80
2023/09/06 05:40:14;;;;;;;12.63;4.20;;;22.50;56.20;;;;;;5080758;28;20040;-79
2023/09/06 05:42:41;;;;;;;9.85;4.03;;;22.60;56.30;;;;;;5077715;28;20036;-87
2023/09/06 05:45:11;;;;;;;6.45;3.97;;;22.60;56.20;;;;;;5078032;28;20079;-91
2023/09/06 05:47:38;;;;;;;6.05;3.45;;;22.70;56.20;;;;;;5078751;28;20070;-78
2023/09/06 05:50:06;;;;;;;7.40;4.00;;;22.80;56.00;;;;;;5104437;28;20044;-80
2023/09/06 05:52:32;;;;;;;6.97;4.13;;;23.10;55.70;;;;;;5116248;28;20032;-80
2023/09/06 05:54:57;;;;;;;8.73;4.50;;;23.20;55.50;;;;;;5125401;28;20051;-77
2023/09/06 05:57:23;;;;;;;7.97;3.90;;;23.50;55.10;;;;;;5124827;28;20396;-77
2023/09/06 05:59:49;;;;;;;9.63;4.55;;;23.80;54.80;;;;;;5100187;28;20040;-73
2023/09/06 06:02:15;;;;;;;7.50;4.40;;;24.00;54.50;;;;;;5085720;28;20138;-78
2023/09/06 06:04:44;;;;;;;6.50;4.45;;;24.30;54.10;;;;;;5074530;28;20028;-76
2023/09/06 06:07:14;;;;;;;8.02;4.10;;;24.50;53.80;;;;;;5072981;28;20098;-78
2023/09/06 06:09:40;;;;;;;9.07;4.47;;;24.60;53.20;;;;;;5076468;28;20035;-78
2023/09/06 06:12:06;;;;;;;10.82;4.45;;;24.80;53.10;;;;;;5074980;28;20032;-78
2023/09/06 06:14:32;;;;;;;9.68;4.25;;;24.90;53.00;;;;;;5078150;28;20032;-77
2023/09/06 06:16:57;;;;;;;10.27;3.80;;;25.10;52.60;;;;;;5073291;28;20094;-77
2023/09/06 06:19:24;;;;;;;7.82;4.07;;;25.30;52.10;;;;;;5073349;28;20060;-77
2023/09/06 06:21:50;;;;;;;9.52;4.40;;;25.60;51.90;;;;;;5074774;28;20036;-78
2023/09/06 06:24:16;;;;;;;8.27;4.78;;;25.70;51.50;;;;;;5074835;28;20024;-79
2023/09/06 06:26:42;;;;;;;7.30;4.65;;;25.90;51.40;;;;;;5073274;28;20496;-78
2023/09/06 06:29:09;;;;;;;8.30;4.70;;;26.10;51.00;;;;;;5075059;28;20029;-77
2023/09/06 06:31:35;;;;;;;9.60;4.50;;;26.30;50.60;;;;;;5073693;28;20025;-77
2023/09/06 06:34:01;;;;;;;9.80;5.15;;;26.40;50.10;;;;;;5079265;28;20478;-78
2023/09/06 06:36:26;;;;;;;11.20;4.88;;;26.40;50.00;;;;;;5083489;28;20086;-78
2023/09/06 06:38:52;;;;;;;12.52;5.22;;;26.40;50.00;;;;;;5094592;28;20040;-78
2023/09/06 06:41:22;;;;;;;10.90;5.40;;;26.40;50.00;;;;;;5076066;28;20449;-78
2023/09/06 06:43:52;;;;;;;12.05;5.20;;;26.50;49.90;;;;;;5093904;28;20163;-78
2023/09/06 06:46:34;;;;;;;8.85;5.45;;;26.50;49.40;;;;;;5094603;28;20039;-78
2023/09/06 06:49:04;;;;;;;27.98;8.63;;;26.50;49.40;;;;;;5094311;28;20062;-78
2023/09/06 06:51:35;;;;;;;16.02;5.60;;;26.60;50.00;;;;;;5094112;28;20039;-77
2023/09/06 06:54:07;;;;;;;14.18;6.63;;;26.80;49.60;;;;;;5094247;28;20024;-78
2023/09/06 06:56:34;;;;;;;10.93;5.00;;;26.90;49.60;;;;;;5094210;28;20028;-75
2023/09/06 06:59:00;;;;;;;10.25;5.53;;;26.90;49.10;;;;;;5080365;28;20036;-77
2023/09/06 07:01:27;;;;;;;13.15;6.28;;;26.90;49.20;;;;;;5102315;28;20050;-79
2023/09/06 07:03:56;;;;;;;9.77;4.55;;;27.00;49.20;;;;;;5110370;28;20031;-79
2023/09/06 07:06:25;;;;;;;11.52;5.10;;;27.10;48.70;;;;;;5114467;28;20576;-79
2023/09/06 07:08:52;;;;;;;13.38;5.38;;;27.10;48.90;;;;;;5095035;28;20024;-78
2023/09/06 07:11:19;;;;;;;12.50;5.68;;;27.20;49.10;;;;;;5114738;28;20364;-79
2023/09/06 07:13:49;;;;;;;9.88;4.90;;;27.10;48.90;;;;;;5114737;28;20028;-80
2023/09/06 07:16:17;;;;;;;9.85;5.30;;;27.20;48.80;;;;;;5114485;28;20036;-78
2023/09/06 07:18:43;;;;;;;10.48;5.43;;;27.30;48.70;;;;;;5114774;28;20368;-79
2023/09/06 07:21:09;;;;;;;8.90;4.90;;;27.40;48.80;;;;;;5096300;28;20043;-78
2023/09/06 07:23:35;;;;;;;13.25;6.47;;;27.40;48.60;;;;;;5114455;28;20049;-78
2023/09/06 07:26:01;;;;;;;10.75;5.57;;;27.50;48.50;;;;;;5096112;28;20028;-78
2023/09/06 07:28:39;;;;;;;12.82;6.57;;;27.70;48.30;;;;;;5114536;28;20032;-78
2023/09/06 07:31:05;;;;;;;19.15;6.40;;;27.70;47.60;;;;;;5114207;28;20027;-80
2023/09/06 07:33:31;;;;;;;14.30;6.10;;;27.70;47.90;;;;;;5114113;28;20031;-79
2023/09/06 07:35:57;;;;;;;9.07;5.70;;;27.90;47.90;;;;;;5114011;28;20035;-79
2023/09/06 07:38:23;;;;;;;14.43;6.53;;;27.90;47.90;;;;;;5113911;28;20032;-79
2023/09/06 07:41:03;;;;;;;15.05;5.97;;;27.90;47.50;;;;;;5095790;28;20510;-78
2023/09/06 07:43:30;;;;;;;9.07;5.95;;;28.10;46.80;;;;;;5113947;28;20487;-79
2023/09/06 07:45:59;;;;;;;13.95;6.07;;;28.10;47.60;;;;;;5114290;28;20043;-79
2023/09/06 07:48:26;;;;;;;15.93;6.25;;;28.20;47.30;;;;;;5095788;28;20023;-78
2023/09/06 07:50:53;;;;;;;11.45;6.13;;;28.20;47.40;;;;;;5113435;28;20093;-80
2023/09/06 07:53:19;;;;;;;10.27;6.05;;;28.10;47.20;;;;;;5095442;28;20471;-78
2023/09/06 07:55:48;;;;;;;14.68;6.68;;;28.00;47.20;;;;;;5115544;28;20027;-78
2023/09/06 07:58:15;;;;;;;13.75;6.18;;;28.00;47.30;;;;;;5117766;28;20027;-80
2023/09/06 08:00:42;;;;;;;15.30;7.50;;;27.90;47.30;;;;;;5113729;28;20039;-80
2023/09/06 08:03:08;;;;;;;8.80;6.20;;;27.90;47.50;;;;;;5095366;28;20119;-79
2023/09/06 08:05:37;;;;;;;12.68;6.20;;;27.80;47.30;;;;;;5095382;28;20499;-79
2023/09/06 08:08:07;;;;;;;9.48;6.10;;;27.70;46.70;;;;;;5113676;28;20073;-79
2023/09/06 08:10:37;;;;;;;12.00;6.00;;;27.70;47.40;;;;;;5113581;28;20039;-79
2023/09/06 08:13:03;;;;;;;11.35;6.57;;;27.60;47.80;;;;;;5113551;28;20055;-79
2023/09/06 08:15:33;;;;;;;13.88;6.00;;;27.60;47.60;;;;;;5113591;28;20395;-80
2023/09/06 08:17:59;;;;;;;13.73;6.15;;;27.50;47.70;;;;;;5113565;28;20110;-81
2023/09/06 08:20:25;;;;;;;11.85;6.57;;;27.50;47.80;;;;;;5113205;28;20055;-78
2023/09/06 08:22:51;;;;;;;11.57;6.70;;;27.40;47.70;;;;;;5113646;28;20032;-79
2023/09/06 08:25:18;;;;;;;11.30;6.28;;;27.40;47.90;;;;;;5113285;28;20515;-80
2023/09/06 08:27:44;;;;;;;7.93;6.03;;;27.40;47.90;;;;;;5113212;28;20020;-79
2023/09/06 08:30:15;;;;;;;9.07;6.32;;;27.40;47.70;;;;;;5095146;28;20036;-80
2023/09/06 08:32:43;;;;;;;11.35;6.22;;;27.40;47.80;;;;;;5113176;28;20114;-78
2023/09/06 08:35:11;;;;;;;12.30;6.38;;;27.40;47.80;;;;;;5094649;28;20433;-80
2023/09/06 08:37:38;;;;;;;9.18;6.15;;;27.40;47.70;;;;;;5113267;28;20035;-79
2023/09/06 08:40:05;;;;;;;10.90;6.65;;;27.40;47.20;;;;;;5113156;28;20556;-78
2023/09/06 08:42:33;;;;;;;12.38;6.57;;;27.40;47.20;;;;;;5113298;28;20099;-79
2023/09/06 08:45:00;;;;;;;12.00;6.50;;;27.40;47.50;;;;;;5113156;28;20036;-80
2023/09/06 08:47:28;;;;;;;18.70;6.97;;;27.40;47.20;;;;;;5113159;28;20038;-79
2023/09/06 08:49:54;;;;;;;8.55;6.55;;;27.50;47.00;;;;;;5113070;28;20550;-79
2023/09/06 08:52:21;;;;;;;8.18;6.55;;;27.50;46.80;;;;;;5112689;28;20123;-80
2023/09/06 08:54:48;;;;;;;12.13;7.43;;;27.50;46.60;;;;;;5113064;28;20035;-81
2023/09/06 08:57:15;;;;;;;10.35;7.50;;;27.50;46.10;;;;;;5113075;28;20105;-79
2023/09/06 08:59:41;;;;;;;8.07;6.55;;;27.60;46.30;;;;;;5112876;28;20028;-81
2023/09/06 09:02:12;;;;;;;12.13;6.53;;;27.60;45.90;;;;;;5113225;28;20067;-78
2023/09/06 09:04:42;;;;;;;12.15;6.97;;;27.60;45.70;;;;;;5112537;28;20031;-80
2023/09/06 09:07:12;;;;;;;12.45;7.75;;;27.70;46.00;;;;;;5114077;28;20047;-78
2023/09/06 09:09:57;;;;;;;11.13;6.88;;;27.70;46.10;;;;;;5117037;28;20446;-80
2023/09/06 09:12:24;;;;;;;10.60;6.70;;;27.80;46.10;;;;;;5116794;28;20372;-79
2023/09/06 09:14:51;;;;;;;12.23;6.68;;;27.80;45.90;;;;;;5116887;28;20024;-79
2023/09/06 09:17:20;;;;;;;11.60;6.85;;;27.80;46.30;;;;;;5116991;28;20046;-79
2023/09/06 09:19:50;;;;;;;15.15;7.00;;;27.80;46.30;;;;;;5117858;28;20375;-79
2023/09/06 09:22:31;;;;;;;13.23;6.82;;;27.90;45.70;;;;;;5098772;28;20040;-78
2023/09/06 09:25:15;;;;;;;11.82;6.60;;;27.90;44.60;;;;;;5117249;28;20028;-79
2023/09/06 09:27:57;;;;;;;11.50;6.65;;;27.90;45.70;;;;;;5117024;28;20027;-78
2023/09/06 09:30:24;;;;;;;14.10;6.43;;;28.00;45.00;;;;;;5098304;28;20066;-80
2023/09/06 09:32:57;;;;;;;17.17;6.90;;;28.00;45.40;;;;;;5116638;28;20111;-78
2023/09/06 09:35:25;;;;;;;10.88;6.25;;;28.10;45.10;;;;;;5116488;28;20040;-78
2023/09/06 09:37:51;;;;;;;11.18;6.43;;;28.20;44.90;;;;;;5115723;28;20506;-78
2023/09/06 09:40:32;;;;;;;13.38;6.95;;;28.20;45.20;;;;;;5096679;28;20348;-78
2023/09/06 09:43:00;;;;;;;8.05;6.00;;;28.30;45.20;;;;;;5115793;28;20039;-78
2023/09/06 09:45:30;;;;;;;9.95;6.00;;;28.30;44.80;;;;;;5115617;28;20031;-79
2023/09/06 09:47:59;;;;;;;17.98;7.90;;;28.40;45.00;;;;;;5115691;28;20036;-79
2023/09/06 09:50:28;;;;;;;19.38;6.47;;;28.40;44.10;;;;;;5115367;28;20055;-79
2023/09/06 09:52:55;;;;;;;9.38;5.68;;;28.50;44.20;;;;;;5115777;28;20548;-79
2023/09/06 09:55:27;;;;;;;8.23;5.68;;;28.60;44.10;;;;;;5116703;28;20107;-78
2023/09/06 09:57:54;;;;;;;7.93;5.90;;;28.70;43.70;;;;;;5102353;28;20028;-80
2023/09/06 10:00:27;;;;;;;7.55;5.65;;;28.70;43.60;;;;;;5129561;28;20047;-80
2023/09/06 10:02:56;;;;;;;11.63;5.80;;;28.80;43.10;;;;;;5116028;28;20024;-80
2023/09/06 10:05:23;;;;;;;6.88;5.40;;;28.80;43.40;;;;;;5096836;28;20554;-79
2023/09/06 10:07:49;;;;;;;9.50;5.55;;;28.80;42.90;;;;;;5115146;28;20066;-78
2023/09/06 10:10:17;;;;;;;7.50;6.10;;;28.80;42.90;;;;;;5114909;28;20059;-79
2023/09/06 10:12:49;;;;;;;13.75;5.70;;;28.90;42.70;;;;;;5096653;28;20395;-78
2023/09/06 10:15:15;;;;;;;10.52;5.72;;;29.00;42.40;;;;;;5114931;28;20077;-79
2023/09/06 10:17:47;;;;;;;9.40;5.00;;;29.10;42.50;;;;;;5114433;28;20024;-79
2023/09/06 10:20:16;;;;;;;7.32;5.75;;;29.20;42.40;;;;;;5114015;28;20467;-79
2023/09/06 10:22:43;;;;;;;7.65;5.30;;;29.30;41.80;;;;;;5115192;28;20081;-78
2023/09/06 10:25:10;;;;;;;7.90;5.65;;;29.40;42.00;;;;;;5115171;28;20056;-78
2023/09/06 10:27:49;;;;;;;8.23;5.75;;;29.50;41.90;;;;;;5115119;28;20035;-79
2023/09/06 10:30:18;;;;;;;8.13;5.22;;;29.50;40.80;;;;;;5114685;28;20027;-79
2023/09/06 10:32:46;;;;;;;8.27;5.85;;;29.50;41.40;;;;;;5096504;28;20408;-79
2023/09/06 10:35:22;;;;;;;7.70;5.50;;;29.50;41.50;;;;;;5114753;28;20042;-80
2023/09/06 10:38:10;;;;;;;9.27;5.72;;;29.60;40.80;;;;;;5115129;28;20073;-79
2023/09/06 10:40:51;;;;;;;8.48;5.47;;;29.80;41.80;;;;;;5114434;28;20122;-79
2023/09/06 10:43:17;;;;;;;7.65;5.18;;;29.80;41.00;;;;;;5114667;28;20028;-80
2023/09/06 10:46:05;;;;;;;8.48;5.68;;;29.80;41.20;;;;;;5114518;28;20498;-79
2023/09/06 10:48:32;;;;;;;8.75;4.85;;;29.90;40.00;;;;;;5114743;28;20027;-78
2023/09/06 10:51:13;;;;;;;8.88;5.28;;;30.00;40.00;;;;;;5097490;28;20136;-79
2023/09/06 10:53:40;;;;;;;8.88;6.13;;;30.10;39.70;;;;;;5116772;28;20451;-79
2023/09/06 10:56:07;;;;;;;7.55;5.25;;;30.10;40.40;;;;;;5117473;28;20114;-79
2023/09/06 10:58:37;;;;;;;9.52;4.88;;;30.10;40.00;;;;;;5114457;28;20387;-79
2023/09/06 11:01:12;;;;;;;5.43;4.53;;;30.10;39.60;;;;;;5114147;28;20035;-80
2023/09/06 11:03:38;;;;;;;5.20;4.03;;;30.10;39.40;;;;;;5114483;28;20463;-79
2023/09/06 11:06:07;;;;;;;7.82;4.90;;;30.20;39.50;;;;;;5113906;28;20054;-78
2023/09/06 11:08:33;;;;;;;8.20;4.72;;;30.30;39.00;;;;;;5114430;28;20035;-77
2023/09/06 11:11:08;;;;;;;7.25;5.18;;;30.40;38.80;;;;;;5095733;28;20126;-79
2023/09/06 11:13:36;;;;;;;7.55;4.60;;;30.40;39.70;;;;;;5113840;28;20036;-77
2023/09/06 11:16:10;;;;;;;9.95;4.53;;;30.50;40.40;;;;;;5095345;28;20070;-78
2023/09/06 11:18:46;;;;;;;9.27;5.10;;;30.50;40.60;;;;;;5115409;28;20031;-77
2023/09/06 11:21:23;;;;;;;6.25;4.53;;;30.50;40.60;;;;;;5113687;28;20035;-80
2023/09/06 11:23:53;;;;;;;7.72;4.68;;;30.50;40.60;;;;;;5095419;28;20505;-79
2023/09/06 11:26:19;;;;;;;8.25;4.38;;;30.60;41.00;;;;;;5113696;28;20108;-79
2023/09/06 11:28:47;;;;;;;6.93;4.95;;;30.70;40.80;;;;;;5113883;28;20028;-80
2023/09/06 11:31:20;;;;;;;9.30;4.63;;;30.70;40.80;;;;;;5113524;28;20028;-80
2023/09/06 11:33:46;;;;;;;13.65;7.93;;;30.70;40.70;;;;;;5095165;28;20038;-79
2023/09/06 11:36:13;;;;;;;11.50;8.65;;;30.70;40.40;;;;;;5113784;28;20028;-78
2023/09/06 11:38:41;;;;;;;7.32;5.50;;;30.70;40.50;;;;;;5113574;28;20043;-78
2023/09/06 11:41:08;;;;;;;7.75;4.70;;;30.70;40.40;;;;;;5113775;28;20491;-79
2023/09/06 11:43:37;;;;;;;6.97;4.22;;;30.80;40.50;;;;;;5113551;28;20024;-79
2023/09/06 11:46:06;;;;;;;8.25;4.60;;;30.80;40.10;;;;;;5113903;28;20044;-79
2023/09/06 11:48:34;;;;;;;6.88;4.60;;;30.90;40.00;;;;;;5095248;28;20479;-79
2023/09/06 11:51:11;;;;;;;7.50;4.18;;;30.90;40.20;;;;;;5113626;28;20118;-79
2023/09/06 11:53:43;;;;;;;7.45;4.15;;;30.90;39.80;;;;;;5113628;28;20039;-78
2023/09/06 11:56:11;;;;;;;6.47;4.20;;;31.00;39.90;;;;;;5123953;28;20035;-79
2023/09/06 11:58:43;;;;;;;8.93;4.57;;;31.00;40.20;;;;;;5125687;28;20032;-79
2023/09/06 12:01:11;;;;;;;5.90;3.92;;;31.00;40.20;;;;;;5095778;28;20112;-79
2023/09/06 12:03:45;;;;;;;7.05;4.63;;;31.10;40.20;;;;;;5113886;28;20024;-81
2023/09/06 12:06:10;;;;;;;8.85;4.20;;;31.20;39.90;;;;;;5113227;28;20044;-78
2023/09/06 12:08:38;;;;;;;7.80;3.42;;;31.10;39.80;;;;;;5113290;28;20054;-79
2023/09/06 12:11:10;;;;;;;6.13;3.70;;;31.10;40.00;;;;;;5113651;28;20024;-78
2023/09/06 12:13:38;;;;;;;5.63;3.60;;;31.10;39.90;;;;;;5095119;28;20041;-80
2023/09/06 12:16:06;;;;;;;7.57;3.70;;;31.10;40.00;;;;;;5115915;28;20052;-79
2023/09/06 12:18:33;;;;;;;5.82;3.75;;;31.20;40.10;;;;;;5116342;28;20107;-79
2023/09/06 12:20:59;;;;;;;5.03;3.40;;;31.10;39.80;;;;;;5112999;28;20047;-80
2023/09/06 12:23:28;;;;;;;8.52;3.83;;;31.10;40.00;;;;;;5094496;28;20032;-79
2023/09/06 12:25:55;;;;;;;8.32;3.40;;;31.10;41.10;;;;;;5113139;28;20137;-79
2023/09/06 12:28:21;;;;;;;6.32;3.38;;;31.10;40.40;;;;;;5113053;28;20034;-78
2023/09/06 12:30:48;;;;;;;7.00;3.75;;;31.10;40.60;;;;;;5094281;28;20131;-80
2023/09/06 12:33:14;;;;;;;7.45;3.42;;;31.10;40.80;;;;;;5113105;28;20046;-78
2023/09/06 12:35:40;;;;;;;7.85;3.50;;;31.20;40.80;;;;;;5095222;28;20469;-80
2023/09/06 12:38:06;;;;;;;8.63;3.72;;;31.20;40.60;;;;;;5112824;28;20070;-78
2023/09/06 12:40:33;;;;;;;5.82;3.60;;;31.20;40.60;;;;;;5094242;28;20043;-79
2023/09/06 12:43:00;;;;;;;7.80;3.55;;;31.30;40.80;;;;;;5097116;28;20497;-79
2023/09/06 12:45:30;;;;;;;7.25;4.10;;;31.30;40.70;;;;;;5116830;28;20031;-81
2023/09/06 12:48:00;;;;;;;7.05;3.95;;;31.40;40.80;;;;;;5098650;28;20043;-79
2023/09/06 12:50:27;;;;;;;6.80;4.15;;;31.40;40.60;;;;;;5098732;28;20035;-80